sensor_id;sensor_type;location;lat;lon;timestamp;P1;durP1;ratioP1;P2;durP2;ratioP2
69392;SDS011;56582;44.624;20.378;2023-07-02T00:02:20;6.53;;;3.70;;
69392;SDS011;56582;44.624;20.378;2023-07-02T00:04:46;6.60;;;3.42;;
69392;SDS011;56582;44.624;20.378;2023-07-02T00:07:12;7.75;;;3.72;;
69392;SDS011;56582;44.624;20.378;2023-07-02T00:09:39;8.98;;;3.20;;
69392;SDS011;56582;44.624;20.378;2023-07-02T00:12:05;8.73;;;3.47;;
69392;SDS011;56582;44.624;20.378;2023-07-02T00:14:31;7.47;;;3.95;;
69392;SDS011;56582;44.624;20.378;2023-07-02T00:16:56;8.20;;;3.83;;
69392;SDS011;56582;44.624;20.378;2023-07-02T00:19:22;7.32;;;3.83;;
69392;SDS011;56582;44.624;20.378;2023-07-02T00:21:47;6.73;;;3.77;;
69392;SDS011;56582;44.624;20.378;2023-07-02T00:24:13;7.20;;;3.53;;
69392;SDS011;56582;44.624;20.378;2023-07-02T00:26:41;6.07;;;3.23;;
69392;SDS011;56582;44.624;20.378;2023-07-02T00:29:06;6.15;;;3.60;;
69392;SDS011;56582;44.624;20.378;2023-07-02T00:31:33;8.45;;;3.50;;
69392;SDS011;56582;44.624;20.378;2023-07-02T00:33:59;6.05;;;3.53;;
69392;SDS011;56582;44.624;20.378;2023-07-02T00:36:26;6.67;;;3.33;;
69392;SDS011;56582;44.624;20.378;2023-07-02T00:38:51;6.53;;;3.58;;
69392;SDS011;56582;44.624;20.378;2023-07-02T00:41:17;5.63;;;3.37;;
69392;SDS011;56582;44.624;20.378;2023-07-02T00:43:43;7.85;;;4.30;;
69392;SDS011;56582;44.624;20.378;2023-07-02T00:46:17;8.55;;;4.30;;
69392;SDS011;56582;44.624;20.378;2023-07-02T00:48:46;7.33;;;3.10;;
69392;SDS011;56582;44.624;20.378;2023-07-02T00:51:25;7.10;;;4.13;;
69392;SDS011;56582;44.624;20.378;2023-07-02T00:53:54;8.43;;;4.50;;
69392;SDS011;56582;44.624;20.378;2023-07-02T00:56:21;9.65;;;3.83;;
69392;SDS011;56582;44.624;20.378;2023-07-02T00:58:48;7.63;;;3.60;;
69392;SDS011;56582;44.624;20.378;2023-07-02T01:01:16;8.77;;;4.00;;
69392;SDS011;56582;44.624;20.378;2023-07-02T01:03:53;7.45;;;3.85;;
69392;SDS011;56582;44.624;20.378;2023-07-02T01:06:24;7.35;;;4.35;;
69392;SDS011;56582;44.624;20.378;2023-07-02T01:08:51;9.77;;;4.82;;
69392;SDS011;56582;44.624;20.378;2023-07-02T01:11:22;10.82;;;5.40;;
69392;SDS011;56582;44.624;20.378;2023-07-02T01:13:52;8.70;;;5.17;;
69392;SDS011;56582;44.624;20.378;2023-07-02T01:16:19;10.05;;;5.63;;
69392;SDS011;56582;44.624;20.378;2023-07-02T01:18:46;9.55;;;5.07;;
69392;SDS011;56582;44.624;20.378;2023-07-02T01:21:13;10.32;;;6.30;;
69392;SDS011;56582;44.624;20.378;2023-07-02T01:23:38;9.90;;;5.27;;
69392;SDS011;56582;44.624;20.378;2023-07-02T01:26:04;9.83;;;5.40;;
69392;SDS011;56582;44.624;20.378;2023-07-02T01:28:34;11.50;;;5.78;;
69392;SDS011;56582;44.624;20.378;2023-07-02T01:31:04;10.53;;;6.10;;
69392;SDS011;56582;44.624;20.378;2023-07-02T01:33:30;9.77;;;5.93;;
69392;SDS011;56582;44.624;20.378;2023-07-02T01:35:56;11.23;;;5.97;;
69392;SDS011;56582;44.624;20.378;2023-07-02T01:38:22;12.13;;;6.00;;
69392;SDS011;56582;44.624;20.378;2023-07-02T01:40:47;10.07;;;5.67;;
69392;SDS011;56582;44.624;20.378;2023-07-02T01:43:13;11.50;;;5.50;;
69392;SDS011;56582;44.624;20.378;2023-07-02T01:45:38;8.70;;;5.50;;
69392;SDS011;56582;44.624;20.378;2023-07-02T01:48:04;12.33;;;5.70;;
69392;SDS011;56582;44.624;20.378;2023-07-02T01:50:29;8.90;;;5.57;;
69392;SDS011;56582;44.624;20.378;2023-07-02T01:52:55;11.23;;;6.27;;
69392;SDS011;56582;44.624;20.378;2023-07-02T01:55:20;9.90;;;5.60;;
69392;SDS011;56582;44.624;20.378;2023-07-02T01:57:45;9.67;;;6.07;;
69392;SDS011;56582;44.624;20.378;2023-07-02T02:00:11;11.27;;;5.20;;
69392;SDS011;56582;44.624;20.378;2023-07-02T02:02:37;10.23;;;5.50;;
69392;SDS011;56582;44.624;20.378;2023-07-02T02:05:03;11.32;;;5.68;;
69392;SDS011;56582;44.624;20.378;2023-07-02T02:07:28;9.90;;;5.53;;
69392;SDS011;56582;44.624;20.378;2023-07-02T02:09:54;9.30;;;3.70;;
69392;SDS011;56582;44.624;20.378;2023-07-02T02:12:19;9.93;;;4.95;;
69392;SDS011;56582;44.624;20.378;2023-07-02T02:14:44;8.03;;;4.60;;
69392;SDS011;56582;44.624;20.378;2023-07-02T02:17:10;10.83;;;5.43;;
69392;SDS011;56582;44.624;20.378;2023-07-02T02:19:35;9.13;;;4.80;;
69392;SDS011;56582;44.624;20.378;2023-07-02T02:22:01;12.73;;;4.82;;
69392;SDS011;56582;44.624;20.378;2023-07-02T02:24:26;9.43;;;5.33;;
69392;SDS011;56582;44.624;20.378;2023-07-02T02:26:52;8.87;;;4.80;;
69392;SDS011;56582;44.624;20.378;2023-07-02T02:29:17;8.07;;;4.13;;
69392;SDS011;56582;44.624;20.378;2023-07-02T02:31:43;7.65;;;4.38;;
69392;SDS011;56582;44.624;20.378;2023-07-02T02:34:08;9.10;;;5.10;;
69392;SDS011;56582;44.624;20.378;2023-07-02T02:36:34;8.27;;;4.70;;
69392;SDS011;56582;44.624;20.378;2023-07-02T02:39:00;8.00;;;4.72;;
69392;SDS011;56582;44.624;20.378;2023-07-02T02:41:26;8.43;;;4.20;;
69392;SDS011;56582;44.624;20.378;2023-07-02T02:43:51;9.80;;;5.13;;
69392;SDS011;56582;44.624;20.378;2023-07-02T02:46:20;8.57;;;3.97;;
69392;SDS011;56582;44.624;20.378;2023-07-02T02:48:49;9.35;;;4.72;;
69392;SDS011;56582;44.624;20.378;2023-07-02T02:51:15;8.50;;;5.00;;
69392;SDS011;56582;44.624;20.378;2023-07-02T02:53:41;7.05;;;3.38;;
69392;SDS011;56582;44.624;20.378;2023-07-02T02:56:06;9.33;;;4.67;;
69392;SDS011;56582;44.624;20.378;2023-07-02T02:58:31;11.10;;;5.63;;
69392;SDS011;56582;44.624;20.378;2023-07-02T03:00:57;10.50;;;5.90;;
69392;SDS011;56582;44.624;20.378;2023-07-02T03:03:22;11.00;;;4.88;;
69392;SDS011;56582;44.624;20.378;2023-07-02T03:05:49;10.13;;;5.97;;
69392;SDS011;56582;44.624;20.378;2023-07-02T03:08:15;8.80;;;5.05;;
69392;SDS011;56582;44.624;20.378;2023-07-02T03:10:41;8.53;;;4.60;;
69392;SDS011;56582;44.624;20.378;2023-07-02T03:13:07;10.63;;;6.00;;
69392;SDS011;56582;44.624;20.378;2023-07-02T03:15:32;10.02;;;6.07;;
69392;SDS011;56582;44.624;20.378;2023-07-02T03:17:57;10.63;;;6.20;;
69392;SDS011;56582;44.624;20.378;2023-07-02T03:20:23;10.57;;;5.67;;
69392;SDS011;56582;44.624;20.378;2023-07-02T03:22:49;10.38;;;6.28;;
69392;SDS011;56582;44.624;20.378;2023-07-02T03:25:15;10.60;;;6.27;;
69392;SDS011;56582;44.624;20.378;2023-07-02T03:27:41;12.63;;;6.95;;
69392;SDS011;56582;44.624;20.378;2023-07-02T03:30:06;10.63;;;6.30;;
69392;SDS011;56582;44.624;20.378;2023-07-02T03:32:32;11.70;;;6.90;;
69392;SDS011;56582;44.624;20.378;2023-07-02T03:34:58;10.70;;;6.67;;
69392;SDS011;56582;44.624;20.378;2023-07-02T03:37:23;12.18;;;6.40;;
69392;SDS011;56582;44.624;20.378;2023-07-02T03:39:48;10.83;;;6.53;;
69392;SDS011;56582;44.624;20.378;2023-07-02T03:42:14;11.50;;;6.20;;
69392;SDS011;56582;44.624;20.378;2023-07-02T03:44:40;10.32;;;5.50;;
69392;SDS011;56582;44.624;20.378;2023-07-02T03:47:06;11.90;;;6.60;;
69392;SDS011;56582;44.624;20.378;2023-07-02T03:49:33;12.00;;;7.07;;
69392;SDS011;56582;44.624;20.378;2023-07-02T03:51:59;11.07;;;6.63;;
69392;SDS011;56582;44.624;20.378;2023-07-02T03:54:24;10.52;;;6.80;;
69392;SDS011;56582;44.624;20.378;2023-07-02T03:56:49;11.90;;;5.43;;
69392;SDS011;56582;44.624;20.378;2023-07-02T03:59:15;16.47;;;5.47;;
69392;SDS011;56582;44.624;20.378;2023-07-02T04:01:40;9.27;;;5.30;;
69392;SDS011;56582;44.624;20.378;2023-07-02T04:04:06;12.48;;;5.30;;
69392;SDS011;56582;44.624;20.378;2023-07-02T04:06:32;11.83;;;5.27;;
69392;SDS011;56582;44.624;20.378;2023-07-02T04:08:59;11.57;;;5.43;;
69392;SDS011;56582;44.624;20.378;2023-07-02T04:11:24;10.40;;;5.97;;
69392;SDS011;56582;44.624;20.378;2023-07-02T04:13:50;11.77;;;5.60;;
69392;SDS011;56582;44.624;20.378;2023-07-02T04:16:15;9.63;;;5.20;;
69392;SDS011;56582;44.624;20.378;2023-07-02T04:18:41;10.37;;;5.00;;
69392;SDS011;56582;44.624;20.378;2023-07-02T04:21:06;13.10;;;5.93;;
69392;SDS011;56582;44.624;20.378;2023-07-02T04:23:32;11.18;;;5.38;;
69392;SDS011;56582;44.624;20.378;2023-07-02T04:25:57;10.57;;;6.20;;
69392;SDS011;56582;44.624;20.378;2023-07-02T04:28:22;9.97;;;6.20;;
69392;SDS011;56582;44.624;20.378;2023-07-02T04:30:48;10.13;;;6.73;;
69392;SDS011;56582;44.624;20.378;2023-07-02T04:33:15;10.38;;;6.15;;
69392;SDS011;56582;44.624;20.378;2023-07-02T04:35:40;10.30;;;6.30;;
69392;SDS011;56582;44.624;20.378;2023-07-02T04:38:06;12.97;;;6.30;;
69392;SDS011;56582;44.624;20.378;2023-07-02T04:40:32;11.45;;;6.80;;
69392;SDS011;56582;44.624;20.378;2023-07-02T04:42:57;12.20;;;6.43;;
69392;SDS011;56582;44.624;20.378;2023-07-02T04:45:23;11.17;;;6.13;;
69392;SDS011;56582;44.624;20.378;2023-07-02T04:47:57;11.43;;;7.25;;
69392;SDS011;56582;44.624;20.378;2023-07-02T04:50:22;11.77;;;6.18;;
69392;SDS011;56582;44.624;20.378;2023-07-02T04:52:48;12.43;;;6.13;;
69392;SDS011;56582;44.624;20.378;2023-07-02T04:55:13;13.10;;;6.47;;
69392;SDS011;56582;44.624;20.378;2023-07-02T04:57:38;9.80;;;5.97;;
69392;SDS011;56582;44.624;20.378;2023-07-02T05:00:04;10.90;;;6.18;;
69392;SDS011;56582;44.624;20.378;2023-07-02T05:02:31;10.17;;;5.73;;
69392;SDS011;56582;44.624;20.378;2023-07-02T05:04:56;10.80;;;5.47;;
69392;SDS011;56582;44.624;20.378;2023-07-02T05:07:22;11.33;;;6.60;;
69392;SDS011;56582;44.624;20.378;2023-07-02T05:09:47;9.97;;;5.60;;
69392;SDS011;56582;44.624;20.378;2023-07-02T05:12:14;9.75;;;5.30;;
69392;SDS011;56582;44.624;20.378;2023-07-02T05:14:40;10.02;;;6.20;;
69392;SDS011;56582;44.624;20.378;2023-07-02T05:17:05;11.70;;;6.27;;
69392;SDS011;56582;44.624;20.378;2023-07-02T05:19:31;13.93;;;6.70;;
69392;SDS011;56582;44.624;20.378;2023-07-02T05:21:56;10.00;;;5.90;;
69392;SDS011;56582;44.624;20.378;2023-07-02T05:24:21;10.03;;;6.30;;
69392;SDS011;56582;44.624;20.378;2023-07-02T05:27:05;11.10;;;5.95;;
69392;SDS011;56582;44.624;20.378;2023-07-02T05:29:31;11.60;;;6.77;;
69392;SDS011;56582;44.624;20.378;2023-07-02T05:31:57;10.15;;;6.90;;
69392;SDS011;56582;44.624;20.378;2023-07-02T05:34:22;13.53;;;6.67;;
69392;SDS011;56582;44.624;20.378;2023-07-02T05:36:47;10.13;;;6.00;;
69392;SDS011;56582;44.624;20.378;2023-07-02T05:39:13;11.00;;;6.23;;
69392;SDS011;56582;44.624;20.378;2023-07-02T05:41:38;10.95;;;6.80;;
69392;SDS011;56582;44.624;20.378;2023-07-02T05:44:04;10.33;;;6.27;;
69392;SDS011;56582;44.624;20.378;2023-07-02T05:46:29;9.80;;;6.10;;
69392;SDS011;56582;44.624;20.378;2023-07-02T05:48:55;11.07;;;5.53;;
69392;SDS011;56582;44.624;20.378;2023-07-02T05:54:46;11.07;;;5.90;;
69392;SDS011;56582;44.624;20.378;2023-07-02T05:57:12;11.17;;;6.93;;
69392;SDS011;56582;44.624;20.378;2023-07-02T05:59:37;10.43;;;6.13;;
69392;SDS011;56582;44.624;20.378;2023-07-02T06:02:03;10.73;;;6.00;;
69392;SDS011;56582;44.624;20.378;2023-07-02T06:04:28;15.27;;;7.00;;
69392;SDS011;56582;44.624;20.378;2023-07-02T06:06:54;11.27;;;6.10;;
69392;SDS011;56582;44.624;20.378;2023-07-02T06:09:19;15.63;;;7.90;;
69392;SDS011;56582;44.624;20.378;2023-07-02T06:11:44;14.32;;;8.27;;
69392;SDS011;56582;44.624;20.378;2023-07-02T06:14:10;12.17;;;6.73;;
69392;SDS011;56582;44.624;20.378;2023-07-02T06:16:35;11.13;;;6.80;;
69392;SDS011;56582;44.624;20.378;2023-07-02T06:19:01;23.27;;;11.07;;
69392;SDS011;56582;44.624;20.378;2023-07-02T06:21:26;26.13;;;13.30;;
69392;SDS011;56582;44.624;20.378;2023-07-02T06:23:54;15.63;;;8.80;;
69392;SDS011;56582;44.624;20.378;2023-07-02T06:26:21;26.83;;;13.53;;
69392;SDS011;56582;44.624;20.378;2023-07-02T06:28:47;18.08;;;9.57;;
69392;SDS011;56582;44.624;20.378;2023-07-02T06:31:12;28.33;;;13.97;;
69392;SDS011;56582;44.624;20.378;2023-07-02T06:33:38;18.23;;;8.40;;
69392;SDS011;56582;44.624;20.378;2023-07-02T06:36:06;13.07;;;7.18;;
69392;SDS011;56582;44.624;20.378;2023-07-02T06:38:31;12.43;;;7.20;;
69392;SDS011;56582;44.624;20.378;2023-07-02T06:40:56;15.60;;;8.70;;
69392;SDS011;56582;44.624;20.378;2023-07-02T06:43:22;13.35;;;8.18;;
69392;SDS011;56582;44.624;20.378;2023-07-02T06:45:47;10.77;;;6.37;;
69392;SDS011;56582;44.624;20.378;2023-07-02T06:48:13;10.57;;;6.83;;
69392;SDS011;56582;44.624;20.378;2023-07-02T06:50:43;12.77;;;7.97;;
69392;SDS011;56582;44.624;20.378;2023-07-02T06:53:11;12.82;;;7.63;;
69392;SDS011;56582;44.624;20.378;2023-07-02T06:55:37;14.17;;;8.90;;
69392;SDS011;56582;44.624;20.378;2023-07-02T06:58:04;12.90;;;8.75;;
69392;SDS011;56582;44.624;20.378;2023-07-02T07:00:31;12.83;;;8.50;;
69392;SDS011;56582;44.624;20.378;2023-07-02T07:02:57;13.27;;;9.05;;
69392;SDS011;56582;44.624;20.378;2023-07-02T07:05:23;15.10;;;9.90;;
69392;SDS011;56582;44.624;20.378;2023-07-02T07:07:48;15.27;;;9.57;;
69392;SDS011;56582;44.624;20.378;2023-07-02T07:10:14;16.43;;;11.47;;
69392;SDS011;56582;44.624;20.378;2023-07-02T07:12:39;16.73;;;9.83;;
69392;SDS011;56582;44.624;20.378;2023-07-02T07:15:05;14.53;;;10.87;;
69392;SDS011;56582;44.624;20.378;2023-07-02T07:17:30;15.50;;;10.18;;
69392;SDS011;56582;44.624;20.378;2023-07-02T07:19:56;16.77;;;11.20;;
69392;SDS011;56582;44.624;20.378;2023-07-02T07:22:21;18.70;;;12.73;;
69392;SDS011;56582;44.624;20.378;2023-07-02T07:24:47;18.83;;;13.60;;
69392;SDS011;56582;44.624;20.378;2023-07-02T07:27:12;19.13;;;13.83;;
69392;SDS011;56582;44.624;20.378;2023-07-02T07:29:37;14.33;;;10.60;;
69392;SDS011;56582;44.624;20.378;2023-07-02T07:32:03;17.27;;;12.40;;
69392;SDS011;56582;44.624;20.378;2023-07-02T07:34:29;15.20;;;11.60;;
69392;SDS011;56582;44.624;20.378;2023-07-02T07:36:54;15.57;;;11.60;;
69392;SDS011;56582;44.624;20.378;2023-07-02T07:39:20;16.83;;;10.63;;
69392;SDS011;56582;44.624;20.378;2023-07-02T07:41:48;14.63;;;10.47;;
69392;SDS011;56582;44.624;20.378;2023-07-02T07:44:13;15.50;;;10.65;;
69392;SDS011;56582;44.624;20.378;2023-07-02T07:46:39;13.70;;;9.40;;
69392;SDS011;56582;44.624;20.378;2023-07-02T07:49:04;14.27;;;10.03;;
69392;SDS011;56582;44.624;20.378;2023-07-02T07:51:30;15.98;;;12.30;;
69392;SDS011;56582;44.624;20.378;2023-07-02T07:53:55;16.00;;;11.90;;
69392;SDS011;56582;44.624;20.378;2023-07-02T07:56:21;14.93;;;10.80;;
69392;SDS011;56582;44.624;20.378;2023-07-02T07:58:46;13.30;;;10.40;;
69392;SDS011;56582;44.624;20.378;2023-07-02T08:01:14;14.23;;;10.25;;
69392;SDS011;56582;44.624;20.378;2023-07-02T08:03:40;14.47;;;9.30;;
69392;SDS011;56582;44.624;20.378;2023-07-02T08:06:05;14.60;;;10.05;;
69392;SDS011;56582;44.624;20.378;2023-07-02T08:08:31;13.57;;;9.57;;
69392;SDS011;56582;44.624;20.378;2023-07-02T08:10:56;15.17;;;8.93;;
69392;SDS011;56582;44.624;20.378;2023-07-02T08:13:21;12.82;;;8.48;;
69392;SDS011;56582;44.624;20.378;2023-07-02T08:15:47;12.00;;;7.83;;
69392;SDS011;56582;44.624;20.378;2023-07-02T08:18:13;11.47;;;8.17;;
69392;SDS011;56582;44.624;20.378;2023-07-02T08:20:39;12.43;;;7.97;;
69392;SDS011;56582;44.624;20.378;2023-07-02T08:23:05;11.30;;;7.77;;
69392;SDS011;56582;44.624;20.378;2023-07-02T08:25:30;12.70;;;6.83;;
69392;SDS011;56582;44.624;20.378;2023-07-02T08:27:56;15.05;;;7.57;;
69392;SDS011;56582;44.624;20.378;2023-07-02T08:30:22;10.80;;;6.83;;
69392;SDS011;56582;44.624;20.378;2023-07-02T08:32:47;10.00;;;6.60;;
69392;SDS011;56582;44.624;20.378;2023-07-02T08:35:13;11.07;;;6.07;;
69392;SDS011;56582;44.624;20.378;2023-07-02T08:37:39;9.60;;;6.40;;
69392;SDS011;56582;44.624;20.378;2023-07-02T08:40:04;13.77;;;6.30;;
69392;SDS011;56582;44.624;20.378;2023-07-02T08:42:31;9.60;;;6.22;;
69392;SDS011;56582;44.624;20.378;2023-07-02T08:44:58;12.00;;;7.13;;
69392;SDS011;56582;44.624;20.378;2023-07-02T08:47:25;8.93;;;5.82;;
69392;SDS011;56582;44.624;20.378;2023-07-02T08:49:50;12.43;;;7.13;;
69392;SDS011;56582;44.624;20.378;2023-07-02T08:52:16;10.30;;;6.83;;
69392;SDS011;56582;44.624;20.378;2023-07-02T08:54:41;9.98;;;6.55;;
69392;SDS011;56582;44.624;20.378;2023-07-02T08:57:08;10.80;;;6.43;;
69392;SDS011;56582;44.624;20.378;2023-07-02T08:59:35;12.48;;;7.97;;
69392;SDS011;56582;44.624;20.378;2023-07-02T09:02:01;11.40;;;7.20;;
69392;SDS011;56582;44.624;20.378;2023-07-02T09:04:27;12.37;;;8.43;;
69392;SDS011;56582;44.624;20.378;2023-07-02T09:09:32;14.40;;;9.20;;
69392;SDS011;56582;44.624;20.378;2023-07-02T09:11:58;14.95;;;7.90;;
69392;SDS011;56582;44.624;20.378;2023-07-02T09:17:26;16.58;;;12.02;;
69392;SDS011;56582;44.624;20.378;2023-07-02T09:19:55;15.25;;;10.50;;
69392;SDS011;56582;44.624;20.378;2023-07-02T09:22:21;14.20;;;10.03;;
69392;SDS011;56582;44.624;20.378;2023-07-02T09:24:56;11.35;;;8.43;;
69392;SDS011;56582;44.624;20.378;2023-07-02T09:27:40;10.83;;;7.90;;
69392;SDS011;56582;44.624;20.378;2023-07-02T09:32:38;11.75;;;9.30;;
69392;SDS011;56582;44.624;20.378;2023-07-02T09:35:04;11.57;;;7.50;;
69392;SDS011;56582;44.624;20.378;2023-07-02T09:37:34;13.60;;;8.75;;
69392;SDS011;56582;44.624;20.378;2023-07-02T09:39:59;13.33;;;7.90;;
69392;SDS011;56582;44.624;20.378;2023-07-02T09:42:26;11.75;;;7.40;;
69392;SDS011;56582;44.624;20.378;2023-07-02T09:44:56;11.82;;;7.32;;
69392;SDS011;56582;44.624;20.378;2023-07-02T09:47:24;10.23;;;6.80;;
69392;SDS011;56582;44.624;20.378;2023-07-02T09:49:54;10.53;;;6.87;;
69392;SDS011;56582;44.624;20.378;2023-07-02T09:52:24;9.43;;;6.68;;
69392;SDS011;56582;44.624;20.378;2023-07-02T09:54:51;11.13;;;7.38;;
69392;SDS011;56582;44.624;20.378;2023-07-02T09:57:16;10.57;;;6.90;;
69392;SDS011;56582;44.624;20.378;2023-07-02T09:59:42;9.27;;;7.00;;
69392;SDS011;56582;44.624;20.378;2023-07-02T10:02:10;11.47;;;6.43;;
69392;SDS011;56582;44.624;20.378;2023-07-02T10:04:47;10.93;;;7.30;;
69392;SDS011;56582;44.624;20.378;2023-07-02T10:07:13;10.10;;;6.03;;
69392;SDS011;56582;44.624;20.378;2023-07-02T10:09:51;10.13;;;6.60;;
69392;SDS011;56582;44.624;20.378;2023-07-02T10:12:23;9.93;;;6.80;;
69392;SDS011;56582;44.624;20.378;2023-07-02T10:14:54;10.95;;;6.63;;
69392;SDS011;56582;44.624;20.378;2023-07-02T10:19:56;9.45;;;6.47;;
69392;SDS011;56582;44.624;20.378;2023-07-02T10:22:24;10.65;;;6.78;;
69392;SDS011;56582;44.624;20.378;2023-07-02T10:24:59;9.27;;;6.28;;
69392;SDS011;56582;44.624;20.378;2023-07-02T10:27:38;10.85;;;6.93;;
69392;SDS011;56582;44.624;20.378;2023-07-02T10:30:05;10.00;;;6.67;;
69392;SDS011;56582;44.624;20.378;2023-07-02T10:32:33;13.20;;;7.45;;
69392;SDS011;56582;44.624;20.378;2023-07-02T10:34:59;14.25;;;7.95;;
69392;SDS011;56582;44.624;20.378;2023-07-02T10:37:38;14.88;;;8.85;;
69392;SDS011;56582;44.624;20.378;2023-07-02T10:40:04;14.60;;;9.33;;
69392;SDS011;56582;44.624;20.378;2023-07-02T10:42:32;15.15;;;9.00;;
69392;SDS011;56582;44.624;20.378;2023-07-02T10:44:59;12.63;;;8.80;;
69392;SDS011;56582;44.624;20.378;2023-07-02T10:47:24;12.43;;;7.33;;
69392;SDS011;56582;44.624;20.378;2023-07-02T10:49:50;11.55;;;7.20;;
69392;SDS011;56582;44.624;20.378;2023-07-02T10:52:15;11.97;;;6.50;;
69392;SDS011;56582;44.624;20.378;2023-07-02T10:54:45;12.27;;;7.90;;
69392;SDS011;56582;44.624;20.378;2023-07-02T10:57:15;9.82;;;7.50;;
69392;SDS011;56582;44.624;20.378;2023-07-02T10:59:47;11.35;;;7.55;;
69392;SDS011;56582;44.624;20.378;2023-07-02T11:02:13;12.45;;;7.75;;
69392;SDS011;56582;44.624;20.378;2023-07-02T11:04:39;11.43;;;7.60;;
69392;SDS011;56582;44.624;20.378;2023-07-02T11:07:05;10.10;;;7.70;;
69392;SDS011;56582;44.624;20.378;2023-07-02T11:09:31;11.43;;;7.57;;
69392;SDS011;56582;44.624;20.378;2023-07-02T11:11:57;10.37;;;7.50;;
69392;SDS011;56582;44.624;20.378;2023-07-02T11:14:31;11.40;;;6.47;;
69392;SDS011;56582;44.624;20.378;2023-07-02T11:16:58;11.40;;;7.07;;
69392;SDS011;56582;44.624;20.378;2023-07-02T11:19:25;11.18;;;7.53;;
69392;SDS011;56582;44.624;20.378;2023-07-02T11:21:51;13.60;;;9.13;;
69392;SDS011;56582;44.624;20.378;2023-07-02T11:24:26;16.95;;;10.32;;
69392;SDS011;56582;44.624;20.378;2023-07-02T11:27:09;10.85;;;6.80;;
69392;SDS011;56582;44.624;20.378;2023-07-02T11:29:46;10.27;;;7.40;;
69392;SDS011;56582;44.624;20.378;2023-07-02T11:32:12;12.50;;;7.93;;
69392;SDS011;56582;44.624;20.378;2023-07-02T11:34:39;15.65;;;10.45;;
69392;SDS011;56582;44.624;20.378;2023-07-02T11:37:04;13.20;;;9.20;;
69392;SDS011;56582;44.624;20.378;2023-07-02T11:39:30;17.50;;;10.53;;
69392;SDS011;56582;44.624;20.378;2023-07-02T11:41:57;11.27;;;7.78;;
69392;SDS011;56582;44.624;20.378;2023-07-02T11:44:22;11.80;;;8.27;;
69392;SDS011;56582;44.624;20.378;2023-07-02T11:46:48;10.93;;;7.93;;
69392;SDS011;56582;44.624;20.378;2023-07-02T11:49:14;10.70;;;7.77;;
69392;SDS011;56582;44.624;20.378;2023-07-02T11:51:40;9.45;;;7.30;;
69392;SDS011;56582;44.624;20.378;2023-07-02T11:54:06;9.90;;;6.95;;
69392;SDS011;56582;44.624;20.378;2023-07-02T11:56:32;9.15;;;5.53;;
69392;SDS011;56582;44.624;20.378;2023-07-02T11:58:58;13.27;;;9.57;;
69392;SDS011;56582;44.624;20.378;2023-07-02T12:01:24;11.27;;;7.40;;
69392;SDS011;56582;44.624;20.378;2023-07-02T12:03:49;11.03;;;6.50;;
69392;SDS011;56582;44.624;20.378;2023-07-02T12:06:15;14.20;;;6.80;;
69392;SDS011;56582;44.624;20.378;2023-07-02T12:08:40;11.30;;;6.93;;
69392;SDS011;56582;44.624;20.378;2023-07-02T12:11:06;11.57;;;7.67;;
69392;SDS011;56582;44.624;20.378;2023-07-02T12:13:32;13.13;;;8.00;;
69392;SDS011;56582;44.624;20.378;2023-07-02T12:15:57;25.87;;;17.13;;
69392;SDS011;56582;44.624;20.378;2023-07-02T12:18:23;20.97;;;15.03;;
69392;SDS011;56582;44.624;20.378;2023-07-02T12:20:49;21.53;;;16.67;;
69392;SDS011;56582;44.624;20.378;2023-07-02T12:23:14;26.87;;;15.87;;
69392;SDS011;56582;44.624;20.378;2023-07-02T12:25:40;20.30;;;13.10;;
69392;SDS011;56582;44.624;20.378;2023-07-02T12:28:05;12.57;;;8.77;;
69392;SDS011;56582;44.624;20.378;2023-07-02T12:30:31;16.10;;;10.55;;
69392;SDS011;56582;44.624;20.378;2023-07-02T12:32:57;13.13;;;8.47;;
69392;SDS011;56582;44.624;20.378;2023-07-02T12:35:22;17.98;;;13.02;;
69392;SDS011;56582;44.624;20.378;2023-07-02T12:37:49;17.83;;;12.87;;
69392;SDS011;56582;44.624;20.378;2023-07-02T12:40:16;18.98;;;10.95;;
69392;SDS011;56582;44.624;20.378;2023-07-02T12:42:43;21.33;;;10.60;;
69392;SDS011;56582;44.624;20.378;2023-07-02T12:45:09;15.35;;;9.40;;
69392;SDS011;56582;44.624;20.378;2023-07-02T12:47:36;40.73;;;32.33;;
69392;SDS011;56582;44.624;20.378;2023-07-02T12:50:02;24.63;;;15.25;;
69392;SDS011;56582;44.624;20.378;2023-07-02T12:52:29;21.92;;;16.13;;
69392;SDS011;56582;44.624;20.378;2023-07-02T12:54:57;14.60;;;8.73;;
69392;SDS011;56582;44.624;20.378;2023-07-02T12:57:23;14.02;;;7.90;;
69392;SDS011;56582;44.624;20.378;2023-07-02T12:59:48;9.93;;;7.43;;
69392;SDS011;56582;44.624;20.378;2023-07-02T13:02:14;12.32;;;7.57;;
69392;SDS011;56582;44.624;20.378;2023-07-02T13:04:39;12.00;;;8.10;;
69392;SDS011;56582;44.624;20.378;2023-07-02T13:07:06;11.63;;;7.90;;
69392;SDS011;56582;44.624;20.378;2023-07-02T13:09:31;11.15;;;8.38;;
69392;SDS011;56582;44.624;20.378;2023-07-02T13:11:57;13.10;;;8.00;;
69392;SDS011;56582;44.624;20.378;2023-07-02T13:14:22;14.63;;;7.38;;
69392;SDS011;56582;44.624;20.378;2023-07-02T13:16:47;16.80;;;8.37;;
69392;SDS011;56582;44.624;20.378;2023-07-02T13:19:13;10.80;;;7.47;;
69392;SDS011;56582;44.624;20.378;2023-07-02T13:21:40;10.52;;;7.28;;
69392;SDS011;56582;44.624;20.378;2023-07-02T13:24:05;10.83;;;8.00;;
69392;SDS011;56582;44.624;20.378;2023-07-02T13:26:31;11.15;;;7.68;;
69392;SDS011;56582;44.624;20.378;2023-07-02T13:28:56;11.37;;;7.57;;
69392;SDS011;56582;44.624;20.378;2023-07-02T13:31:22;10.20;;;7.23;;
69392;SDS011;56582;44.624;20.378;2023-07-02T13:33:48;10.73;;;7.13;;
69392;SDS011;56582;44.624;20.378;2023-07-02T13:36:15;11.88;;;8.95;;
69392;SDS011;56582;44.624;20.378;2023-07-02T13:38:40;11.18;;;8.75;;
69392;SDS011;56582;44.624;20.378;2023-07-02T13:41:06;11.37;;;7.60;;
69392;SDS011;56582;44.624;20.378;2023-07-02T13:43:31;13.40;;;7.97;;
69392;SDS011;56582;44.624;20.378;2023-07-02T13:45:57;12.63;;;7.80;;
69392;SDS011;56582;44.624;20.378;2023-07-02T13:48:22;9.52;;;7.15;;
69392;SDS011;56582;44.624;20.378;2023-07-02T13:50:48;11.00;;;8.00;;
69392;SDS011;56582;44.624;20.378;2023-07-02T13:53:13;10.43;;;7.60;;
69392;SDS011;56582;44.624;20.378;2023-07-02T13:55:39;11.18;;;7.85;;
69392;SDS011;56582;44.624;20.378;2023-07-02T13:58:04;11.93;;;8.17;;
69392;SDS011;56582;44.624;20.378;2023-07-02T14:00:30;11.83;;;7.63;;
69392;SDS011;56582;44.624;20.378;2023-07-02T14:02:55;13.07;;;8.37;;
69392;SDS011;56582;44.624;20.378;2023-07-02T14:05:21;10.57;;;7.88;;
69392;SDS011;56582;44.624;20.378;2023-07-02T14:07:46;13.37;;;8.13;;
69392;SDS011;56582;44.624;20.378;2023-07-02T14:10:12;11.60;;;7.70;;
69392;SDS011;56582;44.624;20.378;2023-07-02T14:12:39;12.40;;;8.00;;
69392;SDS011;56582;44.624;20.378;2023-07-02T14:15:05;12.37;;;8.93;;
69392;SDS011;56582;44.624;20.378;2023-07-02T14:17:31;11.65;;;8.55;;
69392;SDS011;56582;44.624;20.378;2023-07-02T14:19:57;11.43;;;8.65;;
69392;SDS011;56582;44.624;20.378;2023-07-02T14:22:22;13.83;;;7.30;;
69392;SDS011;56582;44.624;20.378;2023-07-02T14:24:48;9.90;;;6.53;;
69392;SDS011;56582;44.624;20.378;2023-07-02T14:27:13;9.77;;;7.57;;
69392;SDS011;56582;44.624;20.378;2023-07-02T14:29:39;11.40;;;8.33;;
69392;SDS011;56582;44.624;20.378;2023-07-02T14:32:04;12.97;;;9.70;;
69392;SDS011;56582;44.624;20.378;2023-07-02T14:34:30;11.75;;;7.97;;